createdAt,value
2022-11-25T00:00:14.567Z,100217.09
2022-11-25T00:02:59.687Z,100244.03
2022-11-25T00:05:45.055Z,100238.28
2022-11-25T00:08:30.036Z,100244.34
2022-11-25T00:11:15.973Z,100231.72
2022-11-25T00:14:01.238Z,100245.19
2022-11-25T00:16:48.660Z,100241.13
2022-11-25T00:19:34.243Z,100240.91
2022-11-25T00:22:19.481Z,100230.28
2022-11-25T00:25:05.211Z,100247.16
2022-11-25T00:27:52.976Z,100257.41
2022-11-25T00:30:38.330Z,100262.63
2022-11-25T00:33:23.379Z,100260.00
2022-11-25T00:36:36.330Z,100263.69
2022-11-25T00:39:24.488Z,100265.66
2022-11-25T00:42:29.148Z,100264.00
2022-11-25T00:45:14.386Z,100262.13
2022-11-25T00:47:59.563Z,100260.34
2022-11-25T00:50:44.395Z,100263.06
2022-11-25T00:53:31.064Z,100255.03
2022-11-25T00:56:16.949Z,100265.13
2022-11-25T00:59:03.540Z,100259.22
2022-11-25T01:01:48.911Z,100270.78
2022-11-25T01:04:34.139Z,100271.78
2022-11-25T01:07:19.781Z,100261.88
2022-11-25T01:10:05.549Z,100258.34
2022-11-25T01:12:50.830Z,100264.47
2022-11-25T01:15:37.760Z,100259.47
2022-11-25T01:18:23.345Z,100264.38
2022-11-25T01:21:09.864Z,100268.44
2022-11-25T01:23:55.256Z,100273.66
2022-11-25T01:26:41.026Z,100277.84
2022-11-25T01:29:26.504Z,100291.47
2022-11-25T01:32:11.779Z,100290.00
2022-11-25T01:34:56.815Z,100296.91
2022-11-25T01:37:41.794Z,100300.47
2022-11-25T01:40:26.991Z,100283.50
2022-11-25T01:43:15.775Z,100301.47
2022-11-25T01:46:06.756Z,100308.28
2022-11-25T01:48:54.637Z,100275.75
2022-11-25T01:51:48.436Z,100305.84
2022-11-25T01:54:40.472Z,100308.19
2022-11-25T01:57:30.714Z,100309.19
2022-11-25T02:00:17.047Z,100310.13
2022-11-25T02:03:02.350Z,100314.41
2022-11-25T02:06:02.868Z,100323.97
2022-11-25T02:08:51.544Z,100319.38
2022-11-25T02:11:40.243Z,100324.66
2022-11-25T02:14:27.040Z,100328.31
2022-11-25T02:17:12.466Z,100329.25
2022-11-25T02:20:08.774Z,100338.59
2022-11-25T02:23:09.143Z,100347.25
2022-11-25T02:25:54.776Z,100333.19
2022-11-25T02:28:40.046Z,100352.84
2022-11-25T02:31:25.473Z,100356.19
2022-11-25T02:34:10.664Z,100349.38
2022-11-25T02:36:56.740Z,100369.94
2022-11-25T02:39:42.320Z,100379.63
2022-11-25T02:42:29.623Z,100359.28
2022-11-25T02:45:17.724Z,100375.25
2022-11-25T02:48:03.022Z,100383.06
2022-11-25T02:50:48.784Z,100378.81
2022-11-25T02:53:33.986Z,100360.34
2022-11-25T02:56:21.834Z,100376.34
2022-11-25T02:59:07.666Z,100387.34
2022-11-25T03:01:53.143Z,100377.69
2022-11-25T03:04:38.849Z,100389.97
2022-11-25T03:07:24.046Z,100398.75
2022-11-25T03:10:09.755Z,100398.16
2022-11-25T03:12:54.703Z,100401.63
2022-11-25T03:15:43.878Z,100407.59
2022-11-25T03:18:29.096Z,100410.47
2022-11-25T03:21:14.440Z,100424.06
2022-11-25T03:24:00.368Z,100427.63
2022-11-25T03:26:45.342Z,100438.09
2022-11-25T03:29:30.667Z,100441.53
2022-11-25T03:32:16.003Z,100450.31
2022-11-25T03:35:01.089Z,100455.69
2022-11-25T03:37:46.784Z,100457.59
2022-11-25T03:40:32.076Z,100431.84
2022-11-25T03:43:17.225Z,100461.31
2022-11-25T03:46:02.511Z,100454.72
2022-11-25T03:48:47.567Z,100477.09
2022-11-25T03:51:32.446Z,100483.34
2022-11-25T03:54:17.790Z,100470.13
2022-11-25T03:57:02.855Z,100491.47
2022-11-25T03:59:48.022Z,100496.06
2022-11-25T04:02:33.244Z,100495.19
2022-11-25T04:05:18.705Z,100510.31
2022-11-25T04:08:04.029Z,100508.09
2022-11-25T04:10:50.416Z,100509.41
2022-11-25T04:13:35.562Z,100505.31
2022-11-25T04:16:24.938Z,100520.31
2022-11-25T04:19:10.235Z,100531.31
2022-11-25T04:21:55.331Z,100513.25
2022-11-25T04:24:40.795Z,100543.72
2022-11-25T04:27:26.115Z,100537.94
2022-11-25T04:30:12.003Z,100547.72
2022-11-25T04:32:57.347Z,100549.19
2022-11-25T04:35:42.874Z,100527.56
2022-11-25T04:38:28.282Z,100555.06
2022-11-25T04:41:13.600Z,100547.84
2022-11-25T04:44:01.995Z,100564.53
2022-11-25T04:46:47.313Z,100574.56
2022-11-25T04:49:32.410Z,100576.47
2022-11-25T04:52:17.894Z,100568.00
2022-11-25T04:55:03.563Z,100578.63
2022-11-25T04:57:48.567Z,100581.41
2022-11-25T05:00:33.671Z,100593.28
2022-11-25T05:03:18.615Z,100599.41
2022-11-25T05:06:08.214Z,100607.97
2022-11-25T05:08:53.404Z,100614.53
2022-11-25T05:11:38.408Z,100597.84
2022-11-25T05:14:25.305Z,100623.59
2022-11-25T05:17:17.083Z,100620.09
2022-11-25T05:20:02.439Z,100643.53
2022-11-25T05:22:47.795Z,100642.13
2022-11-25T05:25:32.686Z,100640.59
2022-11-25T05:28:17.924Z,100641.44
2022-11-25T05:31:02.978Z,100643.28
2022-11-25T05:33:48.080Z,100651.84
2022-11-25T05:36:33.457Z,100658.06
2022-11-25T05:39:19.334Z,100668.41
2022-11-25T05:42:04.549Z,100672.59
2022-11-25T05:44:49.635Z,100673.19
2022-11-25T05:47:34.583Z,100685.22
2022-11-25T05:50:19.652Z,100697.91
2022-11-25T05:53:05.490Z,100683.69
2022-11-25T05:55:56.208Z,100686.47
2022-11-25T05:58:41.643Z,100704.94
2022-11-25T06:01:27.206Z,100696.63
2022-11-25T06:04:12.273Z,100709.38
2022-11-25T06:06:57.227Z,100709.03
2022-11-25T06:09:42.507Z,100710.31
2022-11-25T06:12:27.981Z,100709.66
2022-11-25T06:15:13.241Z,100708.88
2022-11-25T06:17:58.357Z,100724.56
2022-11-25T06:20:43.675Z,100733.44
2022-11-25T06:23:29.019Z,100731.75
2022-11-25T06:26:22.043Z,100739.25
2022-11-25T06:29:07.304Z,100740.19
2022-11-25T06:31:52.480Z,100749.59
2022-11-25T06:34:41.956Z,100736.72
2022-11-25T06:37:27.193Z,100750.28
2022-11-25T06:40:13.081Z,100765.81
2022-11-25T06:42:58.703Z,100752.41
2022-11-25T06:45:43.708Z,100776.28
2022-11-25T06:48:28.682Z,100786.69
2022-11-25T06:51:15.349Z,100798.78
2022-11-25T06:54:00.641Z,100796.44
2022-11-25T06:56:51.491Z,100809.72
2022-11-25T06:59:37.064Z,100818.94
2022-11-25T07:02:22.073Z,100807.38
2022-11-25T07:05:07.803Z,100833.25
2022-11-25T07:07:52.819Z,100837.81
2022-11-25T07:10:38.069Z,100850.88
2022-11-25T07:13:23.003Z,100858.25
2022-11-25T07:16:08.297Z,100843.38
2022-11-25T07:18:53.966Z,100868.09
2022-11-25T07:21:39.268Z,100873.34
2022-11-25T07:24:24.356Z,100884.16
2022-11-25T07:27:09.679Z,100894.69
2022-11-25T07:30:29.053Z,100895.03
2022-11-25T07:33:00.332Z,100910.44
2022-11-25T07:35:45.495Z,100912.78
2022-11-25T07:38:31.475Z,100919.94
2022-11-25T07:41:22.707Z,100905.47
2022-11-25T07:44:08.985Z,100936.81
2022-11-25T07:46:54.020Z,100935.16
2022-11-25T07:49:39.463Z,100956.91
2022-11-25T07:52:24.493Z,100950.50
2022-11-25T07:55:09.849Z,100957.88
2022-11-25T07:57:55.023Z,100945.22
2022-11-25T08:00:40.140Z,100974.13
2022-11-25T08:03:25.208Z,100982.56
2022-11-25T08:06:13.171Z,100976.81
2022-11-25T08:08:58.584Z,100987.06
2022-11-25T08:11:43.599Z,101007.06
2022-11-25T08:14:28.497Z,101003.69
2022-11-25T08:17:13.885Z,101011.94
2022-11-25T08:19:59.208Z,101015.47
2022-11-25T08:22:44.652Z,101005.06
2022-11-25T08:25:31.807Z,101039.38
2022-11-25T08:28:17.093Z,101055.72
2022-11-25T08:31:07.871Z,101058.78
2022-11-25T08:33:54.572Z,101058.78
2022-11-25T08:36:42.538Z,101061.00
2022-11-25T08:42:37.275Z,101074.50
2022-11-25T08:45:22.347Z,101088.28
2022-11-25T08:48:07.639Z,101094.91
2022-11-25T08:50:54.517Z,101108.41
2022-11-25T08:53:40.938Z,101108.09
2022-11-25T08:56:26.916Z,101117.53
2022-11-25T08:59:13.290Z,101113.75
2022-11-25T09:01:58.639Z,101113.25
2022-11-25T09:04:44.053Z,101140.22
2022-11-25T09:07:30.823Z,101150.19
2022-11-25T09:10:17.645Z,101156.94
2022-11-25T09:13:02.796Z,101161.75
2022-11-25T09:15:48.092Z,101182.97
2022-11-25T09:18:35.240Z,101186.19
2022-11-25T09:21:20.199Z,101191.00
2022-11-25T09:24:05.333Z,101190.03
2022-11-25T09:26:51.042Z,101195.28
2022-11-25T09:29:36.779Z,101219.09
2022-11-25T09:32:22.147Z,101208.16
2022-11-25T09:35:07.653Z,101219.84
2022-11-25T09:37:52.983Z,101232.38
2022-11-25T09:41:16.071Z,101231.81
2022-11-25T09:44:46.911Z,101245.94
2022-11-25T09:47:35.164Z,101243.59
2022-11-25T09:50:45.491Z,101234.00
2022-11-25T09:53:59.624Z,101266.09
2022-11-25T09:56:53.831Z,101263.94
2022-11-25T09:59:45.252Z,101280.00
2022-11-25T10:03:23.980Z,101285.59
2022-11-25T10:06:20.522Z,101286.81
2022-11-25T10:09:13.921Z,101275.63
2022-11-25T10:12:06.117Z,101292.38
2022-11-25T10:15:00.840Z,101291.59
2022-11-25T10:17:52.123Z,101306.78
2022-11-25T10:20:41.361Z,101333.63
2022-11-25T10:23:35.298Z,101325.56
2022-11-25T10:26:27.080Z,101336.44
2022-11-25T10:29:15.017Z,101305.56
2022-11-25T10:32:16.058Z,101328.88
2022-11-25T10:35:11.681Z,101318.50
2022-11-25T10:38:00.046Z,101328.25
2022-11-25T10:40:48.784Z,101336.38
2022-11-25T10:43:39.014Z,101337.03
2022-11-25T10:47:04.999Z,101340.19
2022-11-25T10:50:24.962Z,101343.06
2022-11-25T10:53:17.102Z,101338.31
2022-11-25T10:56:11.144Z,101339.09
2022-11-25T10:58:56.195Z,101328.22
2022-11-25T11:01:41.053Z,101328.63
2022-11-25T11:04:26.107Z,101331.59
2022-11-25T11:07:14.119Z,101344.25
2022-11-25T11:10:22.753Z,101325.25
2022-11-25T11:13:20.070Z,101341.44
2022-11-25T11:16:26.452Z,101328.72
2022-11-25T11:19:29.270Z,101338.59
2022-11-25T11:22:17.245Z,101340.38
2022-11-25T11:25:23.318Z,101353.03
2022-11-25T11:28:29.024Z,101358.50
2022-11-25T11:31:26.342Z,101359.91
2022-11-25T11:34:36.777Z,101353.66
2022-11-25T11:37:44.196Z,101369.38
2022-11-25T11:40:35.620Z,101380.31
2022-11-25T11:43:35.903Z,101393.81
2022-11-25T11:46:34.218Z,101385.69
2022-11-25T11:49:34.757Z,101396.84
2022-11-25T11:52:23.022Z,101378.84
2022-11-25T11:55:28.674Z,101394.34
2022-11-25T11:58:25.553Z,101392.19
2022-11-25T12:01:22.179Z,101397.97
2022-11-25T12:04:28.475Z,101397.97
2022-11-25T12:07:47.712Z,101383.75
2022-11-25T12:10:53.046Z,101407.81
2022-11-25T12:14:07.129Z,101409.63
2022-11-25T12:17:02.031Z,101395.00
2022-11-25T12:20:07.114Z,101416.94
2022-11-25T12:23:04.009Z,101411.00
2022-11-25T12:25:51.940Z,101423.31
2022-11-25T12:29:09.796Z,101439.25
2022-11-25T12:32:03.539Z,101438.09
2022-11-25T12:35:15.717Z,101436.31
2022-11-25T12:38:38.552Z,101440.91
2022-11-25T12:41:47.066Z,101441.47
2022-11-25T12:44:51.140Z,101449.09
2022-11-25T12:47:36.117Z,101438.22
2022-11-25T12:50:54.017Z,101465.28
2022-11-25T12:53:54.899Z,101474.47
2022-11-25T12:56:58.436Z,101465.28
2022-11-25T13:00:17.547Z,101480.47
2022-11-25T13:03:12.323Z,101491.00
2022-11-25T13:06:38.725Z,101496.03
2022-11-25T13:09:44.582Z,101501.88
2022-11-25T13:12:33.244Z,101501.19
2022-11-25T13:15:19.014Z,101512.69
2022-11-25T13:18:12.598Z,101502.22
2022-11-25T13:21:06.868Z,101527.31
2022-11-25T13:23:57.225Z,101529.53
2022-11-25T13:26:49.616Z,101529.94
2022-11-25T13:29:53.057Z,101538.16
2022-11-25T13:32:40.538Z,101538.03
2022-11-25T13:35:34.641Z,101510.66
2022-11-25T13:38:57.708Z,101541.13
2022-11-25T13:41:49.441Z,101536.13
2022-11-25T13:44:48.766Z,101549.75
2022-11-25T13:47:41.210Z,101529.72
2022-11-25T13:50:41.936Z,101542.91
2022-11-25T13:53:35.835Z,101560.69
2022-11-25T13:56:20.820Z,101572.84
2022-11-25T13:59:11.996Z,101574.16
2022-11-25T14:02:29.208Z,101572.97
2022-11-25T14:05:33.460Z,101576.69
2022-11-25T14:08:33.270Z,101576.13
2022-11-25T14:11:40.220Z,101593.41
2022-11-25T14:14:49.976Z,101596.19
2022-11-25T14:17:41.696Z,101603.63
2022-11-25T14:20:55.819Z,101603.25
2022-11-25T14:24:00.529Z,101602.34
2022-11-25T14:26:50.685Z,101586.44
2022-11-25T14:29:40.436Z,101612.53
2022-11-25T14:32:31.805Z,101620.44
2022-11-25T14:35:33.786Z,101627.03
2022-11-25T14:38:32.803Z,101634.94
2022-11-25T14:41:23.805Z,101631.84
2022-11-25T14:44:21.720Z,101645.91
2022-11-25T14:47:06.955Z,101651.09
2022-11-25T14:50:18.842Z,101640.78
2022-11-25T14:53:00.245Z,101642.94
2022-11-25T14:55:48.627Z,101629.97
2022-11-25T14:58:34.087Z,101635.41
2022-11-25T15:01:27.805Z,101647.47
2022-11-25T15:04:12.849Z,101642.34
2022-11-25T15:07:01.454Z,101626.25
2022-11-25T15:09:46.602Z,101647.16
2022-11-25T15:12:33.043Z,101662.38
2022-11-25T15:15:18.273Z,101652.97
2022-11-25T15:18:15.459Z,101682.97
2022-11-25T15:21:00.772Z,101679.09
2022-11-25T15:23:45.990Z,101671.34
2022-11-25T15:26:34.537Z,101690.91
2022-11-25T15:29:20.253Z,101688.59
2022-11-25T15:32:05.824Z,101688.81
2022-11-25T15:34:52.878Z,101694.16
2022-11-25T15:37:38.115Z,101696.00
2022-11-25T15:40:36.829Z,101708.47
2022-11-25T15:43:29.705Z,101684.44
2022-11-25T15:46:15.855Z,101715.38
2022-11-25T15:49:07.816Z,101721.25
2022-11-25T15:51:42.192Z,101727.72
2022-11-25T15:54:44.312Z,101727.56
2022-11-25T15:57:36.785Z,101735.66
2022-11-25T16:00:23.556Z,101730.13
2022-11-25T16:03:23.048Z,101747.34
2022-11-25T16:06:26.255Z,101748.75
2022-11-25T16:09:21.403Z,101751.34
2022-11-25T16:12:07.429Z,101727.34
2022-11-25T16:14:52.670Z,101762.47
2022-11-25T16:17:37.843Z,101766.19
2022-11-25T16:20:24.873Z,101770.72
2022-11-25T16:23:13.525Z,101764.59
2022-11-25T16:26:05.360Z,101751.50
2022-11-25T16:28:58.853Z,101762.72
2022-11-25T16:31:44.699Z,101778.56
2022-11-25T16:34:30.821Z,101785.94
2022-11-25T16:37:16.236Z,101775.16
2022-11-25T16:40:01.676Z,101787.38
2022-11-25T16:42:48.936Z,101794.75
2022-11-25T16:45:33.953Z,101799.25
2022-11-25T16:48:23.830Z,101803.09
2022-11-25T16:51:29.370Z,101803.09
2022-11-25T16:54:14.546Z,101803.78
2022-11-25T16:57:00.317Z,101804.84
2022-11-25T16:59:48.145Z,101799.09
2022-11-25T17:02:33.632Z,101815.44
2022-11-25T17:05:22.094Z,101824.22
2022-11-25T17:08:07.061Z,101819.25
2022-11-25T17:10:57.623Z,101823.75
2022-11-25T17:13:46.238Z,101821.22
2022-11-25T17:16:31.559Z,101830.91
2022-11-25T17:19:17.151Z,101829.56
2022-11-25T17:22:01.965Z,101841.88
2022-11-25T17:24:47.992Z,101837.06
2022-11-25T17:27:33.753Z,101857.31
2022-11-25T17:30:27.507Z,101864.38
2022-11-25T17:33:20.142Z,101870.66
2022-11-25T17:36:06.127Z,101876.13
2022-11-25T17:38:51.082Z,101879.88
2022-11-25T17:41:41.407Z,101882.63
2022-11-25T17:44:28.710Z,101882.84
2022-11-25T17:47:16.549Z,101877.09
2022-11-25T17:50:01.745Z,101891.22
2022-11-25T17:52:46.994Z,101865.63
2022-11-25T17:55:33.084Z,101896.06
2022-11-25T17:58:19.209Z,101905.72
2022-11-25T18:01:04.672Z,101911.19
2022-11-25T18:03:52.877Z,101908.88
2022-11-25T18:06:38.107Z,101922.03
2022-11-25T18:09:23.420Z,101927.59
2022-11-25T18:12:30.699Z,101941.00
2022-11-25T18:15:18.973Z,101944.56
2022-11-25T18:18:11.962Z,101941.28
2022-11-25T18:20:57.418Z,101954.50
2022-11-25T18:23:43.707Z,101934.38
2022-11-25T18:26:28.668Z,101956.03
2022-11-25T18:29:40.174Z,101954.31
2022-11-25T18:32:25.764Z,101958.69
2022-11-25T18:35:24.357Z,101967.50
2022-11-25T18:38:10.258Z,101971.16
2022-11-25T18:40:56.419Z,101975.09
2022-11-25T18:43:41.306Z,101982.38
2022-11-25T18:46:26.799Z,101946.97
2022-11-25T18:49:13.595Z,101977.78
2022-11-25T18:51:58.558Z,101985.69
2022-11-25T18:54:43.604Z,101969.72
2022-11-25T18:57:28.722Z,101986.06
2022-11-25T19:00:34.250Z,101985.31
2022-11-25T19:03:22.581Z,101987.06
2022-11-25T19:06:15.117Z,102000.25
2022-11-25T19:09:00.368Z,102005.59
2022-11-25T19:11:49.539Z,102012.63
2022-11-25T19:14:41.828Z,101993.91
2022-11-25T19:17:27.028Z,102022.22
2022-11-25T19:20:18.346Z,102019.63
2022-11-25T19:23:30.905Z,102017.91
2022-11-25T19:26:38.971Z,102029.22
2022-11-25T19:29:42.560Z,102029.44
2022-11-25T19:32:29.693Z,102033.97
2022-11-25T19:35:18.901Z,102033.22
2022-11-25T19:38:25.985Z,102047.03
2022-11-25T19:41:11.464Z,102028.19
2022-11-25T19:43:56.836Z,102048.63
2022-11-25T19:47:13.714Z,102045.16
2022-11-25T19:49:55.953Z,102051.16
2022-11-25T19:52:41.336Z,102053.66
2022-11-25T19:55:32.277Z,102046.84
2022-11-25T19:58:17.739Z,102054.53
2022-11-25T20:01:06.019Z,102054.56
2022-11-25T20:03:51.532Z,102044.34
2022-11-25T20:06:36.757Z,102059.13
2022-11-25T20:09:21.955Z,102063.75
2022-11-25T20:12:24.907Z,102061.47
2022-11-25T20:15:11.356Z,102053.03
2022-11-25T20:18:00.242Z,102065.75
2022-11-25T20:20:48.535Z,102071.25
2022-11-25T20:23:43.395Z,102039.16
2022-11-25T20:26:36.423Z,102070.88
2022-11-25T20:29:26.084Z,102079.56
2022-11-25T20:32:19.599Z,102061.50
2022-11-25T20:35:04.847Z,102093.31
2022-11-25T20:37:57.896Z,102101.16
2022-11-25T20:40:44.924Z,102104.75
2022-11-25T20:43:50.230Z,102101.66
2022-11-25T20:46:35.274Z,102085.66
2022-11-25T20:49:23.737Z,102095.84
2022-11-25T20:52:18.353Z,102072.81
2022-11-25T20:55:16.610Z,102077.09
2022-11-25T20:58:03.293Z,102077.09
2022-11-25T21:00:52.885Z,102094.38
2022-11-25T21:03:43.379Z,102099.59
2022-11-25T21:06:30.439Z,102090.19
2022-11-25T21:09:19.907Z,102109.84
2022-11-25T21:12:06.748Z,102116.91
2022-11-25T21:14:51.922Z,102110.00
2022-11-25T21:17:36.985Z,102111.09
2022-11-25T21:20:22.115Z,102107.75
2022-11-25T21:23:16.964Z,102101.06
2022-11-25T21:26:20.291Z,102109.69
2022-11-25T21:29:05.655Z,102136.47
2022-11-25T21:31:50.855Z,102125.22
2022-11-25T21:34:36.404Z,102133.16
2022-11-25T21:37:29.785Z,102145.22
2022-11-25T21:40:26.083Z,102145.16
2022-11-25T21:43:21.816Z,102139.00
2022-11-25T21:46:12.747Z,102146.72
2022-11-25T21:48:58.011Z,102134.69
2022-11-25T21:51:42.844Z,102149.25
2022-11-25T21:54:27.791Z,102151.91
2022-11-25T21:57:27.914Z,102149.47
2022-11-25T22:00:22.970Z,102141.91
2022-11-25T22:03:15.711Z,102156.59
2022-11-25T22:06:00.777Z,102142.41
2022-11-25T22:08:45.931Z,102148.53
2022-11-25T22:11:37.557Z,102158.16
2022-11-25T22:14:28.806Z,102157.31
2022-11-25T22:17:18.129Z,102137.72
2022-11-25T22:20:04.789Z,102175.28
2022-11-25T22:22:49.655Z,102183.13
2022-11-25T22:25:34.983Z,102189.34
2022-11-25T22:28:24.444Z,102193.97
2022-11-25T22:31:19.371Z,102194.19
2022-11-25T22:34:04.263Z,102174.63
2022-11-25T22:36:49.352Z,102185.00
2022-11-25T22:39:34.594Z,102193.53
2022-11-25T22:42:25.624Z,102190.03
2022-11-25T22:45:30.122Z,102195.19
2022-11-25T22:48:18.383Z,102181.56
2022-11-25T22:51:04.381Z,102184.84
2022-11-25T22:53:49.812Z,102196.00
2022-11-25T22:56:34.783Z,102205.78
2022-11-25T22:59:19.604Z,102198.91
2022-11-25T23:02:05.024Z,102179.13
2022-11-25T23:04:55.632Z,102210.88
2022-11-25T23:07:40.591Z,102203.09
2022-11-25T23:10:29.755Z,102199.69
2022-11-25T23:13:17.104Z,102188.09
2022-11-25T23:16:04.289Z,102204.31
2022-11-25T23:18:49.733Z,102216.31
2022-11-25T23:21:35.135Z,102201.13
2022-11-25T23:24:20.203Z,102222.41
2022-11-25T23:27:05.497Z,102210.47
2022-11-25T23:29:50.516Z,102190.22
2022-11-25T23:32:35.784Z,102214.28
2022-11-25T23:35:34.714Z,102201.50
2022-11-25T23:38:24.178Z,102220.56
2022-11-25T23:41:14.702Z,102228.34
2022-11-25T23:44:13.794Z,102231.81
2022-11-25T23:47:02.947Z,102213.84
2022-11-25T23:49:52.289Z,102229.13
2022-11-25T23:52:37.343Z,102236.91
2022-11-25T23:55:26.783Z,102229.16
2022-11-25T23:58:16.325Z,102243.00
